Defreestville, New York
Current Conditions -  °F | °C
As of 3:02 AM on Monday 24 Nov 2014 (Local Time) from KALB Reporting Station
Light Rain Light Rain  
Wind Chill: 50°   Ceiling: 2600
Heat Index: 50°   Visibility: 9mi
Dew Point: 41°   Wind: 10mph
Humidity: 71%   Direction: 160°SSE
Pressure: 29.85"   Gusts: NA
Location:  42.6273°N, 73.7089°W
Report Text: KALB 240802Z 16009KT 9SM -RA SCT017 BKN026 OVC047 10/05 A2985 RMK AO2 RAB0758 P0000 T01000050 $
Loading
Personal Weather Stations






























Interactive Weather Map New forecast layout! Learn more

10-Day Weather Forecast

Advertisements
Track Severe Weather on mobile